sensor_id;sensor_type;location;lat;lon;timestamp;P1;durP1;ratioP1;P2;durP2;ratioP2
28958;SDS011;16066;0.000;0.000;2023-07-20T05:31:04;11.73;;;7.00;;
28958;SDS011;16066;0.000;0.000;2023-07-20T05:33:30;14.70;;;8.27;;
28958;SDS011;16066;0.000;0.000;2023-07-20T05:35:56;16.03;;;8.03;;
28958;SDS011;16066;0.000;0.000;2023-07-20T05:38:22;13.90;;;9.90;;
28958;SDS011;16066;0.000;0.000;2023-07-20T05:40:48;14.77;;;9.27;;
28958;SDS011;16066;0.000;0.000;2023-07-20T05:43:13;13.70;;;9.40;;
28958;SDS011;16066;0.000;0.000;2023-07-20T05:45:42;15.97;;;9.43;;
28958;SDS011;16066;0.000;0.000;2023-07-20T05:48:08;14.17;;;10.50;;
28958;SDS011;16066;0.000;0.000;2023-07-20T05:50:36;16.03;;;10.30;;
28958;SDS011;16066;0.000;0.000;2023-07-20T05:53:08;18.63;;;13.10;;
28958;SDS011;16066;0.000;0.000;2023-07-20T05:55:34;15.60;;;12.03;;
28958;SDS011;16066;0.000;0.000;2023-07-20T05:57:59;28.30;;;14.47;;
28958;SDS011;16066;0.000;0.000;2023-07-20T06:00:25;21.70;;;13.57;;
28958;SDS011;16066;0.000;0.000;2023-07-20T06:02:52;16.17;;;13.37;;
28958;SDS011;16066;0.000;0.000;2023-07-20T06:05:18;16.70;;;12.97;;
28958;SDS011;16066;0.000;0.000;2023-07-20T06:07:45;17.10;;;13.77;;
28958;SDS011;16066;0.000;0.000;2023-07-20T06:10:10;17.83;;;13.33;;
28958;SDS011;16066;0.000;0.000;2023-07-20T06:12:36;16.80;;;13.90;;
28958;SDS011;16066;0.000;0.000;2023-07-20T06:15:02;18.80;;;14.13;;
28958;SDS011;16066;0.000;0.000;2023-07-20T06:17:29;17.10;;;13.87;;
28958;SDS011;16066;0.000;0.000;2023-07-20T06:19:54;21.10;;;16.47;;
28958;SDS011;16066;0.000;0.000;2023-07-20T06:22:20;23.10;;;18.53;;
28958;SDS011;16066;0.000;0.000;2023-07-20T06:24:45;20.23;;;16.00;;
28958;SDS011;16066;0.000;0.000;2023-07-20T06:27:11;38.70;;;17.37;;
28958;SDS011;16066;0.000;0.000;2023-07-20T06:29:37;21.27;;;15.87;;
28958;SDS011;16066;0.000;0.000;2023-07-20T06:32:03;25.40;;;17.70;;
28958;SDS011;16066;0.000;0.000;2023-07-20T06:34:29;20.53;;;17.00;;
28958;SDS011;16066;0.000;0.000;2023-07-20T06:36:55;22.67;;;17.10;;
28958;SDS011;16066;0.000;0.000;2023-07-20T06:39:21;24.33;;;17.43;;
28958;SDS011;16066;0.000;0.000;2023-07-20T06:41:47;17.50;;;14.20;;
28958;SDS011;16066;0.000;0.000;2023-07-20T06:44:13;14.63;;;13.13;;
28958;SDS011;16066;0.000;0.000;2023-07-20T06:46:38;15.20;;;12.47;;
28958;SDS011;16066;0.000;0.000;2023-07-20T06:49:06;15.83;;;11.90;;
28958;SDS011;16066;0.000;0.000;2023-07-20T06:51:32;16.20;;;12.50;;
28958;SDS011;16066;0.000;0.000;2023-07-20T06:53:58;12.50;;;10.60;;
28958;SDS011;16066;0.000;0.000;2023-07-20T06:56:23;13.37;;;10.80;;
28958;SDS011;16066;0.000;0.000;2023-07-20T06:58:49;14.07;;;11.17;;
28958;SDS011;16066;0.000;0.000;2023-07-20T07:01:14;11.90;;;8.53;;
28958;SDS011;16066;0.000;0.000;2023-07-20T07:03:40;14.07;;;9.50;;
28958;SDS011;16066;0.000;0.000;2023-07-20T07:06:05;10.60;;;7.53;;
28958;SDS011;16066;0.000;0.000;2023-07-20T07:08:31;10.70;;;7.47;;
28958;SDS011;16066;0.000;0.000;2023-07-20T07:10:57;9.40;;;6.80;;
28958;SDS011;16066;0.000;0.000;2023-07-20T07:13:22;6.20;;;5.60;;
28958;SDS011;16066;0.000;0.000;2023-07-20T07:15:48;6.13;;;5.53;;
28958;SDS011;16066;0.000;0.000;2023-07-20T07:18:13;7.13;;;5.17;;
28958;SDS011;16066;0.000;0.000;2023-07-20T07:20:39;5.50;;;4.53;;
28958;SDS011;16066;0.000;0.000;2023-07-20T07:23:04;5.10;;;4.60;;
28958;SDS011;16066;0.000;0.000;2023-07-20T07:25:30;9.27;;;4.50;;
28958;SDS011;16066;0.000;0.000;2023-07-20T07:27:57;8.20;;;4.70;;
28958;SDS011;16066;0.000;0.000;2023-07-20T07:30:23;5.87;;;5.03;;
28958;SDS011;16066;0.000;0.000;2023-07-20T07:32:48;6.13;;;4.63;;
28958;SDS011;16066;0.000;0.000;2023-07-20T07:35:14;5.43;;;4.20;;
28958;SDS011;16066;0.000;0.000;2023-07-20T07:37:39;6.87;;;5.63;;
28958;SDS011;16066;0.000;0.000;2023-07-20T07:40:05;5.40;;;4.53;;
28958;SDS011;16066;0.000;0.000;2023-07-20T07:42:32;4.93;;;4.43;;
28958;SDS011;16066;0.000;0.000;2023-07-20T07:44:58;5.63;;;5.00;;
28958;SDS011;16066;0.000;0.000;2023-07-20T07:47:24;5.10;;;4.57;;
28958;SDS011;16066;0.000;0.000;2023-07-20T07:49:49;6.80;;;4.87;;
28958;SDS011;16066;0.000;0.000;2023-07-20T07:52:15;4.97;;;4.47;;
28958;SDS011;16066;0.000;0.000;2023-07-20T07:54:40;5.90;;;4.70;;
28958;SDS011;16066;0.000;0.000;2023-07-20T07:57:06;6.27;;;4.50;;
28958;SDS011;16066;0.000;0.000;2023-07-20T07:59:32;5.10;;;4.33;;
28958;SDS011;16066;0.000;0.000;2023-07-20T08:02:01;4.70;;;3.90;;
28958;SDS011;16066;0.000;0.000;2023-07-20T08:04:29;3.27;;;2.83;;
28958;SDS011;16066;0.000;0.000;2023-07-20T08:06:55;4.40;;;3.60;;
28958;SDS011;16066;0.000;0.000;2023-07-20T08:09:20;5.70;;;3.60;;
28958;SDS011;16066;0.000;0.000;2023-07-20T08:11:45;6.70;;;2.83;;
28958;SDS011;16066;0.000;0.000;2023-07-20T08:14:12;3.37;;;3.07;;
28958;SDS011;16066;0.000;0.000;2023-07-20T08:16:38;3.83;;;2.80;;
28958;SDS011;16066;0.000;0.000;2023-07-20T08:19:03;3.00;;;2.70;;
28958;SDS011;16066;0.000;0.000;2023-07-20T08:21:29;2.50;;;2.30;;
28958;SDS011;16066;0.000;0.000;2023-07-20T08:23:54;3.00;;;2.60;;
28958;SDS011;16066;0.000;0.000;2023-07-20T08:26:20;2.97;;;2.30;;
28958;SDS011;16066;0.000;0.000;2023-07-20T08:28:47;1.90;;;1.80;;
28958;SDS011;16066;0.000;0.000;2023-07-20T08:31:13;2.73;;;1.60;;
28958;SDS011;16066;0.000;0.000;2023-07-20T08:33:39;1.43;;;1.30;;
28958;SDS011;16066;0.000;0.000;2023-07-20T08:36:04;2.50;;;1.57;;
28958;SDS011;16066;0.000;0.000;2023-07-20T08:38:30;1.30;;;1.20;;
28958;SDS011;16066;0.000;0.000;2023-07-20T08:40:56;2.73;;;1.20;;
28958;SDS011;16066;0.000;0.000;2023-07-20T08:43:24;1.53;;;1.20;;
28958;SDS011;16066;0.000;0.000;2023-07-20T08:45:50;1.83;;;1.37;;
28958;SDS011;16066;0.000;0.000;2023-07-20T08:48:18;1.60;;;1.30;;
28958;SDS011;16066;0.000;0.000;2023-07-20T08:50:45;1.93;;;1.70;;
28958;SDS011;16066;0.000;0.000;2023-07-20T08:53:14;1.90;;;1.80;;
28958;SDS011;16066;0.000;0.000;2023-07-20T08:55:40;2.50;;;1.83;;
28958;SDS011;16066;0.000;0.000;2023-07-20T08:58:08;2.40;;;1.90;;
28958;SDS011;16066;0.000;0.000;2023-07-20T09:00:36;2.20;;;2.00;;
28958;SDS011;16066;0.000;0.000;2023-07-20T09:03:02;2.27;;;1.80;;
28958;SDS011;16066;0.000;0.000;2023-07-20T09:05:28;3.07;;;2.00;;
28958;SDS011;16066;0.000;0.000;2023-07-20T09:07:54;2.07;;;1.97;;
28958;SDS011;16066;0.000;0.000;2023-07-20T09:10:21;2.33;;;2.07;;
28958;SDS011;16066;0.000;0.000;2023-07-20T09:12:47;2.03;;;1.80;;
28958;SDS011;16066;0.000;0.000;2023-07-20T09:15:12;2.27;;;2.00;;
28958;SDS011;16066;0.000;0.000;2023-07-20T09:17:38;2.33;;;2.13;;
28958;SDS011;16066;0.000;0.000;2023-07-20T09:20:07;4.80;;;2.17;;
28958;SDS011;16066;0.000;0.000;2023-07-20T09:22:36;2.37;;;2.17;;
28958;SDS011;16066;0.000;0.000;2023-07-20T09:25:06;2.20;;;2.00;;
28958;SDS011;16066;0.000;0.000;2023-07-20T09:27:40;2.57;;;1.80;;
28958;SDS011;16066;0.000;0.000;2023-07-20T09:30:07;2.17;;;2.00;;
28958;SDS011;16066;0.000;0.000;2023-07-20T09:35:12;1.77;;;1.67;;
28958;SDS011;16066;0.000;0.000;2023-07-20T09:37:39;2.00;;;1.70;;
28958;SDS011;16066;0.000;0.000;2023-07-20T09:40:10;1.70;;;1.60;;
28958;SDS011;16066;0.000;0.000;2023-07-20T09:42:36;1.83;;;1.60;;
28958;SDS011;16066;0.000;0.000;2023-07-20T09:45:02;1.87;;;1.73;;
28958;SDS011;16066;0.000;0.000;2023-07-20T09:47:31;1.80;;;1.70;;
28958;SDS011;16066;0.000;0.000;2023-07-20T09:50:01;1.67;;;1.57;;
28958;SDS011;16066;0.000;0.000;2023-07-20T09:52:28;1.30;;;1.20;;
28958;SDS011;16066;0.000;0.000;2023-07-20T09:54:54;1.50;;;1.37;;
28958;SDS011;16066;0.000;0.000;2023-07-20T09:57:21;1.70;;;1.60;;
28958;SDS011;16066;0.000;0.000;2023-07-20T09:59:46;1.73;;;1.50;;
28958;SDS011;16066;0.000;0.000;2023-07-20T10:02:30;1.50;;;1.33;;
28958;SDS011;16066;0.000;0.000;2023-07-20T10:04:59;1.30;;;1.20;;
28958;SDS011;16066;0.000;0.000;2023-07-20T10:07:28;1.40;;;1.30;;
28958;SDS011;16066;0.000;0.000;2023-07-20T10:09:55;1.93;;;1.20;;
28958;SDS011;16066;0.000;0.000;2023-07-20T10:12:23;1.93;;;1.40;;
28958;SDS011;16066;0.000;0.000;2023-07-20T10:14:57;1.23;;;1.10;;
28958;SDS011;16066;0.000;0.000;2023-07-20T10:17:30;1.27;;;1.17;;
28958;SDS011;16066;0.000;0.000;2023-07-20T10:19:56;1.70;;;1.40;;
28958;SDS011;16066;0.000;0.000;2023-07-20T10:22:25;2.10;;;1.30;;
28958;SDS011;16066;0.000;0.000;2023-07-20T10:24:52;2.17;;;1.37;;
28958;SDS011;16066;0.000;0.000;2023-07-20T10:27:20;2.03;;;1.83;;
28958;SDS011;16066;0.000;0.000;2023-07-20T10:29:46;3.00;;;1.40;;
28958;SDS011;16066;0.000;0.000;2023-07-20T10:32:12;2.47;;;1.50;;
28958;SDS011;16066;0.000;0.000;2023-07-20T10:34:38;1.43;;;1.20;;
28958;SDS011;16066;0.000;0.000;2023-07-20T10:37:04;2.00;;;1.53;;
28958;SDS011;16066;0.000;0.000;2023-07-20T10:39:33;3.23;;;1.43;;
28958;SDS011;16066;0.000;0.000;2023-07-20T10:41:59;1.90;;;1.70;;
28958;SDS011;16066;0.000;0.000;2023-07-20T10:44:31;1.60;;;1.50;;
28958;SDS011;16066;0.000;0.000;2023-07-20T10:47:00;3.00;;;2.40;;
28958;SDS011;16066;0.000;0.000;2023-07-20T10:49:27;2.20;;;1.87;;
28958;SDS011;16066;0.000;0.000;2023-07-20T10:51:56;3.70;;;2.23;;
28958;SDS011;16066;0.000;0.000;2023-07-20T10:56:52;3.47;;;1.87;;
28958;SDS011;16066;0.000;0.000;2023-07-20T10:59:20;4.20;;;2.23;;
28958;SDS011;16066;0.000;0.000;2023-07-20T11:02:05;2.70;;;2.47;;
28958;SDS011;16066;0.000;0.000;2023-07-20T11:04:38;7.50;;;2.20;;
28958;SDS011;16066;0.000;0.000;2023-07-20T11:07:05;3.00;;;2.60;;
28958;SDS011;16066;0.000;0.000;2023-07-20T11:09:38;21.90;;;7.60;;
28958;SDS011;16066;0.000;0.000;2023-07-20T11:14:35;162.23;;;60.27;;
28958;SDS011;16066;0.000;0.000;2023-07-20T11:17:29;60.07;;;23.67;;
28958;SDS011;16066;0.000;0.000;2023-07-20T11:19:56;32.33;;;12.40;;
28958;SDS011;16066;0.000;0.000;2023-07-20T11:22:22;22.87;;;10.57;;
28958;SDS011;16066;0.000;0.000;2023-07-20T11:24:48;32.87;;;9.90;;
28958;SDS011;16066;0.000;0.000;2023-07-20T11:27:16;18.43;;;9.13;;
28958;SDS011;16066;0.000;0.000;2023-07-20T11:29:45;15.40;;;6.80;;
28958;SDS011;16066;0.000;0.000;2023-07-20T11:32:10;9.90;;;3.83;;
28958;SDS011;16066;0.000;0.000;2023-07-20T11:34:36;9.20;;;4.20;;
28958;SDS011;16066;0.000;0.000;2023-07-20T11:37:01;8.37;;;3.47;;
28958;SDS011;16066;0.000;0.000;2023-07-20T11:39:28;2.80;;;2.53;;
28958;SDS011;16066;0.000;0.000;2023-07-20T11:41:55;4.33;;;2.70;;
28958;SDS011;16066;0.000;0.000;2023-07-20T11:44:22;2.63;;;2.37;;
28958;SDS011;16066;0.000;0.000;2023-07-20T11:49:40;4.63;;;2.67;;
28958;SDS011;16066;0.000;0.000;2023-07-20T11:52:07;2.33;;;2.03;;
28958;SDS011;16066;0.000;0.000;2023-07-20T11:54:35;2.17;;;1.87;;
28958;SDS011;16066;0.000;0.000;2023-07-20T11:57:02;2.47;;;2.20;;
28958;SDS011;16066;0.000;0.000;2023-07-20T11:59:28;2.70;;;2.33;;
28958;SDS011;16066;0.000;0.000;2023-07-20T12:01:54;2.17;;;1.97;;
28958;SDS011;16066;0.000;0.000;2023-07-20T12:04:22;3.87;;;2.33;;
28958;SDS011;16066;0.000;0.000;2023-07-20T12:06:48;2.43;;;2.20;;
28958;SDS011;16066;0.000;0.000;2023-07-20T12:09:14;2.90;;;2.03;;
28958;SDS011;16066;0.000;0.000;2023-07-20T12:11:42;3.23;;;2.23;;
28958;SDS011;16066;0.000;0.000;2023-07-20T12:14:09;2.80;;;2.40;;
28958;SDS011;16066;0.000;0.000;2023-07-20T12:16:36;3.33;;;2.40;;
28958;SDS011;16066;0.000;0.000;2023-07-20T12:19:10;2.40;;;2.07;;
28958;SDS011;16066;0.000;0.000;2023-07-20T12:21:38;2.60;;;2.40;;
28958;SDS011;16066;0.000;0.000;2023-07-20T12:24:07;6.13;;;2.43;;
28958;SDS011;16066;0.000;0.000;2023-07-20T12:26:36;2.80;;;2.07;;
28958;SDS011;16066;0.000;0.000;2023-07-20T12:29:02;2.47;;;1.93;;
28958;SDS011;16066;0.000;0.000;2023-07-20T12:31:28;2.27;;;2.07;;
28958;SDS011;16066;0.000;0.000;2023-07-20T12:33:54;8.50;;;2.43;;
28958;SDS011;16066;0.000;0.000;2023-07-20T12:36:21;2.83;;;2.03;;
28958;SDS011;16066;0.000;0.000;2023-07-20T12:38:47;2.50;;;1.93;;
28958;SDS011;16066;0.000;0.000;2023-07-20T12:41:12;3.60;;;2.30;;
28958;SDS011;16066;0.000;0.000;2023-07-20T12:43:39;3.40;;;2.70;;
28958;SDS011;16066;0.000;0.000;2023-07-20T12:46:06;3.07;;;2.30;;
28958;SDS011;16066;0.000;0.000;2023-07-20T12:48:32;1.60;;;1.50;;
28958;SDS011;16066;0.000;0.000;2023-07-20T12:50:58;2.30;;;2.10;;
28958;SDS011;16066;0.000;0.000;2023-07-20T12:53:23;3.50;;;2.00;;
28958;SDS011;16066;0.000;0.000;2023-07-20T12:55:49;1.73;;;1.53;;
28958;SDS011;16066;0.000;0.000;2023-07-20T12:58:14;2.83;;;1.70;;
28958;SDS011;16066;0.000;0.000;2023-07-20T13:00:40;5.60;;;1.73;;
28958;SDS011;16066;0.000;0.000;2023-07-20T13:03:06;4.00;;;1.50;;
28958;SDS011;16066;0.000;0.000;2023-07-20T13:05:33;1.30;;;1.20;;
28958;SDS011;16066;0.000;0.000;2023-07-20T13:08:00;2.37;;;1.30;;
28958;SDS011;16066;0.000;0.000;2023-07-20T13:10:26;1.57;;;1.40;;
28958;SDS011;16066;0.000;0.000;2023-07-20T13:12:52;2.03;;;1.57;;
28958;SDS011;16066;0.000;0.000;2023-07-20T13:15:18;2.27;;;1.83;;
28958;SDS011;16066;0.000;0.000;2023-07-20T13:17:43;2.90;;;1.40;;
28958;SDS011;16066;0.000;0.000;2023-07-20T13:20:10;1.80;;;1.50;;
28958;SDS011;16066;0.000;0.000;2023-07-20T13:22:39;2.23;;;1.60;;
28958;SDS011;16066;0.000;0.000;2023-07-20T13:25:05;1.50;;;1.40;;
28958;SDS011;16066;0.000;0.000;2023-07-20T13:27:32;1.50;;;1.30;;
28958;SDS011;16066;0.000;0.000;2023-07-20T13:29:58;1.60;;;1.30;;
28958;SDS011;16066;0.000;0.000;2023-07-20T13:32:26;3.00;;;1.40;;
28958;SDS011;16066;0.000;0.000;2023-07-20T13:34:52;2.40;;;1.37;;
28958;SDS011;16066;0.000;0.000;2023-07-20T13:37:18;2.50;;;1.40;;
28958;SDS011;16066;0.000;0.000;2023-07-20T13:39:43;1.40;;;1.20;;
28958;SDS011;16066;0.000;0.000;2023-07-20T13:42:09;1.70;;;1.20;;
28958;SDS011;16066;0.000;0.000;2023-07-20T13:44:37;3.30;;;1.30;;
28958;SDS011;16066;0.000;0.000;2023-07-20T13:47:02;1.60;;;1.10;;
28958;SDS011;16066;0.000;0.000;2023-07-20T13:49:30;2.67;;;1.67;;
28958;SDS011;16066;0.000;0.000;2023-07-20T13:51:56;2.30;;;1.50;;
28958;SDS011;16066;0.000;0.000;2023-07-20T13:54:22;1.40;;;1.27;;
28958;SDS011;16066;0.000;0.000;2023-07-20T13:56:48;1.93;;;1.43;;
28958;SDS011;16066;0.000;0.000;2023-07-20T13:59:13;2.30;;;1.20;;
28958;SDS011;16066;0.000;0.000;2023-07-20T14:01:39;2.40;;;1.20;;
28958;SDS011;16066;0.000;0.000;2023-07-20T14:04:04;1.63;;;1.40;;
28958;SDS011;16066;0.000;0.000;2023-07-20T14:06:30;1.40;;;1.30;;
28958;SDS011;16066;0.000;0.000;2023-07-20T14:08:57;1.83;;;1.40;;
28958;SDS011;16066;0.000;0.000;2023-07-20T14:11:23;1.57;;;1.30;;
28958;SDS011;16066;0.000;0.000;2023-07-20T14:13:49;3.90;;;1.73;;
28958;SDS011;16066;0.000;0.000;2023-07-20T14:16:16;1.77;;;1.40;;
28958;SDS011;16066;0.000;0.000;2023-07-20T14:18:41;3.43;;;1.30;;
28958;SDS011;16066;0.000;0.000;2023-07-20T14:21:07;1.87;;;1.30;;
28958;SDS011;16066;0.000;0.000;2023-07-20T14:23:33;2.20;;;1.50;;
28958;SDS011;16066;0.000;0.000;2023-07-20T14:25:58;1.70;;;1.40;;
28958;SDS011;16066;0.000;0.000;2023-07-20T14:28:24;3.83;;;1.47;;
28958;SDS011;16066;0.000;0.000;2023-07-20T14:30:49;1.50;;;1.20;;
28958;SDS011;16066;0.000;0.000;2023-07-20T14:33:15;2.90;;;1.37;;
28958;SDS011;16066;0.000;0.000;2023-07-20T14:35:41;1.80;;;1.70;;
28958;SDS011;16066;0.000;0.000;2023-07-20T14:38:06;4.10;;;1.73;;
28958;SDS011;16066;0.000;0.000;2023-07-20T14:40:32;2.00;;;1.60;;
28958;SDS011;16066;0.000;0.000;2023-07-20T14:42:58;3.47;;;1.60;;
28958;SDS011;16066;0.000;0.000;2023-07-20T14:45:26;1.87;;;1.27;;
28958;SDS011;16066;0.000;0.000;2023-07-20T14:47:52;4.10;;;1.83;;
28958;SDS011;16066;0.000;0.000;2023-07-20T14:50:19;7.50;;;1.70;;
28958;SDS011;16066;0.000;0.000;2023-07-20T14:52:45;3.93;;;1.80;;
28958;SDS011;16066;0.000;0.000;2023-07-20T14:55:11;4.93;;;1.57;;
28958;SDS011;16066;0.000;0.000;2023-07-20T14:57:36;9.03;;;1.67;;
28958;SDS011;16066;0.000;0.000;2023-07-20T15:00:03;3.93;;;1.57;;
28958;SDS011;16066;0.000;0.000;2023-07-20T15:02:33;1.83;;;1.17;;
28958;SDS011;16066;0.000;0.000;2023-07-20T15:04:58;1.50;;;1.40;;
28958;SDS011;16066;0.000;0.000;2023-07-20T15:07:24;2.37;;;1.20;;
28958;SDS011;16066;0.000;0.000;2023-07-20T15:09:50;1.67;;;1.00;;
28958;SDS011;16066;0.000;0.000;2023-07-20T15:12:16;4.33;;;1.70;;
28958;SDS011;16066;0.000;0.000;2023-07-20T15:14:42;3.27;;;1.53;;
28958;SDS011;16066;0.000;0.000;2023-07-20T15:17:11;2.50;;;1.57;;
28958;SDS011;16066;0.000;0.000;2023-07-20T15:19:37;3.90;;;1.30;;
28958;SDS011;16066;0.000;0.000;2023-07-20T15:22:03;5.00;;;1.63;;
28958;SDS011;16066;0.000;0.000;2023-07-20T15:24:29;4.93;;;2.00;;
28958;SDS011;16066;0.000;0.000;2023-07-20T15:26:55;9.93;;;2.67;;
28958;SDS011;16066;0.000;0.000;2023-07-20T15:29:20;6.60;;;2.57;;
28958;SDS011;16066;0.000;0.000;2023-07-20T15:31:46;8.37;;;3.13;;
28958;SDS011;16066;0.000;0.000;2023-07-20T15:34:12;5.40;;;3.47;;
28958;SDS011;16066;0.000;0.000;2023-07-20T15:36:39;9.10;;;2.20;;
28958;SDS011;16066;0.000;0.000;2023-07-20T15:39:05;5.80;;;2.20;;
28958;SDS011;16066;0.000;0.000;2023-07-20T15:41:31;5.37;;;2.30;;
28958;SDS011;16066;0.000;0.000;2023-07-20T15:43:57;4.67;;;2.10;;
28958;SDS011;16066;0.000;0.000;2023-07-20T15:48:48;4.30;;;1.80;;
28958;SDS011;16066;0.000;0.000;2023-07-20T15:51:14;2.70;;;1.50;;
28958;SDS011;16066;0.000;0.000;2023-07-20T15:53:40;3.20;;;1.60;;
28958;SDS011;16066;0.000;0.000;2023-07-20T15:56:05;1.77;;;1.43;;
28958;SDS011;16066;0.000;0.000;2023-07-20T15:58:31;2.53;;;1.47;;
28958;SDS011;16066;0.000;0.000;2023-07-20T16:00:57;2.30;;;1.23;;
28958;SDS011;16066;0.000;0.000;2023-07-20T16:03:23;1.47;;;1.37;;
28958;SDS011;16066;0.000;0.000;2023-07-20T16:05:54;1.97;;;1.40;;
28958;SDS011;16066;0.000;0.000;2023-07-20T16:08:20;1.30;;;1.20;;
28958;SDS011;16066;0.000;0.000;2023-07-20T16:10:45;1.43;;;1.20;;
28958;SDS011;16066;0.000;0.000;2023-07-20T16:13:11;2.30;;;1.37;;
28958;SDS011;16066;0.000;0.000;2023-07-20T16:15:36;1.30;;;1.00;;
28958;SDS011;16066;0.000;0.000;2023-07-20T16:18:02;10.50;;;1.77;;
28958;SDS011;16066;0.000;0.000;2023-07-20T16:20:28;1.70;;;1.20;;
28958;SDS011;16066;0.000;0.000;2023-07-20T16:22:53;1.10;;;1.00;;
28958;SDS011;16066;0.000;0.000;2023-07-20T16:25:19;1.83;;;1.10;;
28958;SDS011;16066;0.000;0.000;2023-07-20T16:27:45;6.90;;;1.50;;
28958;SDS011;16066;0.000;0.000;2023-07-20T16:30:10;1.13;;;1.00;;
28958;SDS011;16066;0.000;0.000;2023-07-20T16:32:39;2.00;;;1.20;;
28958;SDS011;16066;0.000;0.000;2023-07-20T16:35:06;1.40;;;1.30;;
28958;SDS011;16066;0.000;0.000;2023-07-20T16:37:32;1.40;;;1.20;;
28958;SDS011;16066;0.000;0.000;2023-07-20T16:39:58;1.40;;;1.30;;
28958;SDS011;16066;0.000;0.000;2023-07-20T16:42:24;1.77;;;1.60;;
28958;SDS011;16066;0.000;0.000;2023-07-20T16:44:50;1.43;;;1.00;;
28958;SDS011;16066;0.000;0.000;2023-07-20T16:47:15;2.23;;;1.10;;
28958;SDS011;16066;0.000;0.000;2023-07-20T16:49:41;2.20;;;1.20;;
28958;SDS011;16066;0.000;0.000;2023-07-20T16:52:07;1.63;;;1.30;;
28958;SDS011;16066;0.000;0.000;2023-07-20T16:54:33;1.23;;;1.00;;
28958;SDS011;16066;0.000;0.000;2023-07-20T16:56:58;2.10;;;1.33;;
28958;SDS011;16066;0.000;0.000;2023-07-20T16:59:23;1.30;;;1.10;;
28958;SDS011;16066;0.000;0.000;2023-07-20T17:01:49;2.20;;;1.10;;
28958;SDS011;16066;0.000;0.000;2023-07-20T17:04:17;1.40;;;1.03;;
28958;SDS011;16066;0.000;0.000;2023-07-20T17:06:43;1.70;;;1.30;;
28958;SDS011;16066;0.000;0.000;2023-07-20T17:09:11;1.37;;;1.10;;
28958;SDS011;16066;0.000;0.000;2023-07-20T17:11:37;2.33;;;1.30;;
28958;SDS011;16066;0.000;0.000;2023-07-20T17:14:03;2.17;;;1.10;;
28958;SDS011;16066;0.000;0.000;2023-07-20T17:16:29;2.00;;;1.20;;
28958;SDS011;16066;0.000;0.000;2023-07-20T17:18:55;3.43;;;1.20;;
28958;SDS011;16066;0.000;0.000;2023-07-20T17:21:21;7.33;;;1.70;;
28958;SDS011;16066;0.000;0.000;2023-07-20T17:23:50;5.57;;;1.50;;
28958;SDS011;16066;0.000;0.000;2023-07-20T17:26:15;5.10;;;1.20;;
28958;SDS011;16066;0.000;0.000;2023-07-20T17:28:41;2.47;;;1.67;;
28958;SDS011;16066;0.000;0.000;2023-07-20T17:31:06;2.50;;;1.23;;
28958;SDS011;16066;0.000;0.000;2023-07-20T17:33:32;1.57;;;1.10;;
28958;SDS011;16066;0.000;0.000;2023-07-20T17:35:58;1.20;;;1.10;;
28958;SDS011;16066;0.000;0.000;2023-07-20T17:38:24;1.57;;;1.40;;
28958;SDS011;16066;0.000;0.000;2023-07-20T17:40:52;2.50;;;1.80;;
28958;SDS011;16066;0.000;0.000;2023-07-20T17:43:18;1.53;;;1.23;;
28958;SDS011;16066;0.000;0.000;2023-07-20T17:45:50;1.57;;;1.07;;
28958;SDS011;16066;0.000;0.000;2023-07-20T17:48:16;1.83;;;1.30;;
28958;SDS011;16066;0.000;0.000;2023-07-20T17:50:46;2.07;;;1.27;;
28958;SDS011;16066;0.000;0.000;2023-07-20T17:53:12;4.57;;;1.30;;
28958;SDS011;16066;0.000;0.000;2023-07-20T17:55:38;1.20;;;1.10;;
28958;SDS011;16066;0.000;0.000;2023-07-20T17:58:04;1.50;;;1.03;;
28958;SDS011;16066;0.000;0.000;2023-07-20T18:00:30;2.23;;;1.30;;
28958;SDS011;16066;0.000;0.000;2023-07-20T18:02:56;1.50;;;1.40;;
28958;SDS011;16066;0.000;0.000;2023-07-20T18:05:22;1.40;;;1.20;;
28958;SDS011;16066;0.000;0.000;2023-07-20T18:07:47;1.87;;;1.10;;
28958;SDS011;16066;0.000;0.000;2023-07-20T18:10:13;1.30;;;1.20;;
28958;SDS011;16066;0.000;0.000;2023-07-20T18:12:39;2.07;;;1.10;;
28958;SDS011;16066;0.000;0.000;2023-07-20T18:15:06;2.27;;;1.27;;
28958;SDS011;16066;0.000;0.000;2023-07-20T18:17:32;2.00;;;1.30;;
28958;SDS011;16066;0.000;0.000;2023-07-20T18:19:58;6.60;;;1.43;;
28958;SDS011;16066;0.000;0.000;2023-07-20T18:22:23;2.70;;;1.20;;
28958;SDS011;16066;0.000;0.000;2023-07-20T18:24:49;2.60;;;1.50;;
28958;SDS011;16066;0.000;0.000;2023-07-20T18:27:16;2.50;;;1.57;;
28958;SDS011;16066;0.000;0.000;2023-07-20T18:29:41;1.93;;;1.60;;
28958;SDS011;16066;0.000;0.000;2023-07-20T18:32:08;2.20;;;1.50;;
28958;SDS011;16066;0.000;0.000;2023-07-20T18:34:33;2.20;;;1.80;;
28958;SDS011;16066;0.000;0.000;2023-07-20T18:36:59;2.20;;;1.47;;
28958;SDS011;16066;0.000;0.000;2023-07-20T18:39:24;3.17;;;1.83;;
28958;SDS011;16066;0.000;0.000;2023-07-20T18:41:50;2.30;;;1.40;;
28958;SDS011;16066;0.000;0.000;2023-07-20T18:44:15;3.17;;;1.20;;
28958;SDS011;16066;0.000;0.000;2023-07-20T18:46:41;1.60;;;1.40;;
28958;SDS011;16066;0.000;0.000;2023-07-20T18:49:07;4.90;;;2.27;;
28958;SDS011;16066;0.000;0.000;2023-07-20T18:51:33;5.50;;;1.20;;
28958;SDS011;16066;0.000;0.000;2023-07-20T18:53:59;3.13;;;1.90;;
28958;SDS011;16066;0.000;0.000;2023-07-20T18:56:24;4.13;;;1.90;;
28958;SDS011;16066;0.000;0.000;2023-07-20T18:58:50;1.30;;;1.20;;
28958;SDS011;16066;0.000;0.000;2023-07-20T19:01:16;2.70;;;1.27;;
28958;SDS011;16066;0.000;0.000;2023-07-20T19:03:42;1.50;;;1.30;;
28958;SDS011;16066;0.000;0.000;2023-07-20T19:06:08;1.77;;;1.20;;
28958;SDS011;16066;0.000;0.000;2023-07-20T19:08:33;1.50;;;1.40;;
28958;SDS011;16066;0.000;0.000;2023-07-20T19:10:59;2.90;;;1.60;;
28958;SDS011;16066;0.000;0.000;2023-07-20T19:13:28;2.77;;;1.40;;
28958;SDS011;16066;0.000;0.000;2023-07-20T19:15:55;2.00;;;1.50;;
28958;SDS011;16066;0.000;0.000;2023-07-20T19:18:24;1.53;;;1.43;;
28958;SDS011;16066;0.000;0.000;2023-07-20T19:20:50;1.63;;;1.33;;
28958;SDS011;16066;0.000;0.000;2023-07-20T19:23:16;1.50;;;1.40;;
28958;SDS011;16066;0.000;0.000;2023-07-20T19:25:42;3.13;;;1.70;;
28958;SDS011;16066;0.000;0.000;2023-07-20T19:28:08;4.00;;;1.60;;
28958;SDS011;16066;0.000;0.000;2023-07-20T19:30:34;3.00;;;1.50;;
28958;SDS011;16066;0.000;0.000;2023-07-20T19:33:00;4.70;;;1.63;;
28958;SDS011;16066;0.000;0.000;2023-07-20T19:35:25;2.13;;;1.63;;
28958;SDS011;16066;0.000;0.000;2023-07-20T19:37:51;2.53;;;1.53;;
28958;SDS011;16066;0.000;0.000;2023-07-20T19:40:17;3.00;;;1.57;;
28958;SDS011;16066;0.000;0.000;2023-07-20T19:42:43;3.13;;;1.60;;
28958;SDS011;16066;0.000;0.000;2023-07-20T19:45:12;4.50;;;1.90;;
28958;SDS011;16066;0.000;0.000;2023-07-20T19:47:37;3.00;;;2.07;;
28958;SDS011;16066;0.000;0.000;2023-07-20T19:50:03;2.10;;;1.90;;
28958;SDS011;16066;0.000;0.000;2023-07-20T19:52:30;2.10;;;1.60;;
28958;SDS011;16066;0.000;0.000;2023-07-20T19:54:56;3.00;;;2.20;;
28958;SDS011;16066;0.000;0.000;2023-07-20T19:57:21;3.17;;;2.10;;
28958;SDS011;16066;0.000;0.000;2023-07-20T19:59:47;2.20;;;2.00;;
28958;SDS011;16066;0.000;0.000;2023-07-20T20:02:13;2.67;;;2.10;;
28958;SDS011;16066;0.000;0.000;2023-07-20T20:04:38;5.83;;;2.30;;
28958;SDS011;16066;0.000;0.000;2023-07-20T20:07:05;3.00;;;1.70;;
28958;SDS011;16066;0.000;0.000;2023-07-20T20:09:36;2.57;;;1.50;;
28958;SDS011;16066;0.000;0.000;2023-07-20T20:12:02;2.50;;;2.07;;
28958;SDS011;16066;0.000;0.000;2023-07-20T20:14:28;1.97;;;1.70;;
28958;SDS011;16066;0.000;0.000;2023-07-20T20:16:53;2.33;;;1.70;;
28958;SDS011;16066;0.000;0.000;2023-07-20T20:19:19;3.07;;;2.07;;
28958;SDS011;16066;0.000;0.000;2023-07-20T20:21:44;4.20;;;1.87;;
28958;SDS011;16066;0.000;0.000;2023-07-20T20:24:10;3.20;;;1.90;;
28958;SDS011;16066;0.000;0.000;2023-07-20T20:26:36;3.57;;;1.93;;
28958;SDS011;16066;0.000;0.000;2023-07-20T20:29:03;2.10;;;1.63;;
28958;SDS011;16066;0.000;0.000;2023-07-20T20:31:28;2.47;;;1.97;;
28958;SDS011;16066;0.000;0.000;2023-07-20T20:33:54;2.20;;;2.00;;
28958;SDS011;16066;0.000;0.000;2023-07-20T20:36:19;4.27;;;1.90;;